sensor_id;sensor_type;location;lat;lon;timestamp;P1;durP1;ratioP1;P2;durP2;ratioP2
23449;SDS011;11897;45.438;12.128;2022-07-29T00:01:18;6.78;;;5.22;;
23449;SDS011;11897;45.438;12.128;2022-07-29T00:03:45;4.53;;;4.03;;
23449;SDS011;11897;45.438;12.128;2022-07-29T00:06:13;6.88;;;5.63;;
23449;SDS011;11897;45.438;12.128;2022-07-29T00:08:40;5.65;;;4.70;;
23449;SDS011;11897;45.438;12.128;2022-07-29T00:11:06;8.57;;;5.55;;
23449;SDS011;11897;45.438;12.128;2022-07-29T00:13:35;9.65;;;4.85;;
23449;SDS011;11897;45.438;12.128;2022-07-29T00:16:08;4.88;;;4.15;;
23449;SDS011;11897;45.438;12.128;2022-07-29T00:18:35;6.20;;;4.03;;
23449;SDS011;11897;45.438;12.128;2022-07-29T00:21:03;5.95;;;4.20;;
23449;SDS011;11897;45.438;12.128;2022-07-29T00:23:29;4.43;;;3.47;;
23449;SDS011;11897;45.438;12.128;2022-07-29T00:25:56;4.10;;;3.70;;
23449;SDS011;11897;45.438;12.128;2022-07-29T00:28:22;4.13;;;3.25;;
23449;SDS011;11897;45.438;12.128;2022-07-29T00:30:51;3.83;;;3.35;;
23449;SDS011;11897;45.438;12.128;2022-07-29T00:33:18;3.70;;;3.33;;
23449;SDS011;11897;45.438;12.128;2022-07-29T00:35:45;3.00;;;2.70;;
23449;SDS011;11897;45.438;12.128;2022-07-29T00:38:11;3.70;;;2.33;;
23449;SDS011;11897;45.438;12.128;2022-07-29T00:40:37;3.53;;;2.65;;
23449;SDS011;11897;45.438;12.128;2022-07-29T00:43:09;3.45;;;2.25;;
23449;SDS011;11897;45.438;12.128;2022-07-29T00:45:37;4.50;;;2.00;;
23449;SDS011;11897;45.438;12.128;2022-07-29T00:48:06;3.47;;;2.30;;
23449;SDS011;11897;45.438;12.128;2022-07-29T00:50:34;2.33;;;1.90;;
23449;SDS011;11897;45.438;12.128;2022-07-29T00:53:01;7.85;;;2.03;;
23449;SDS011;11897;45.438;12.128;2022-07-29T00:55:29;1.90;;;1.77;;
23449;SDS011;11897;45.438;12.128;2022-07-29T00:57:55;1.77;;;1.38;;
23449;SDS011;11897;45.438;12.128;2022-07-29T01:00:24;2.17;;;1.63;;
23449;SDS011;11897;45.438;12.128;2022-07-29T01:02:50;2.45;;;1.25;;
23449;SDS011;11897;45.438;12.128;2022-07-29T01:05:20;1.67;;;1.42;;
23449;SDS011;11897;45.438;12.128;2022-07-29T01:07:47;2.90;;;1.60;;
23449;SDS011;11897;45.438;12.128;2022-07-29T01:10:15;1.20;;;1.10;;
23449;SDS011;11897;45.438;12.128;2022-07-29T01:12:42;1.98;;;1.27;;
23449;SDS011;11897;45.438;12.128;2022-07-29T01:15:11;2.35;;;1.38;;
23449;SDS011;11897;45.438;12.128;2022-07-29T01:17:40;2.28;;;1.65;;
23449;SDS011;11897;45.438;12.128;2022-07-29T01:20:10;1.70;;;1.15;;
23449;SDS011;11897;45.438;12.128;2022-07-29T01:22:57;2.28;;;1.23;;
23449;SDS011;11897;45.438;12.128;2022-07-29T01:25:43;3.47;;;1.45;;
23449;SDS011;11897;45.438;12.128;2022-07-29T01:28:19;1.85;;;1.40;;
23449;SDS011;11897;45.438;12.128;2022-07-29T01:30:52;1.40;;;1.17;;
23449;SDS011;11897;45.438;12.128;2022-07-29T01:33:20;2.50;;;1.65;;
23449;SDS011;11897;45.438;12.128;2022-07-29T01:36:02;2.67;;;1.20;;
23449;SDS011;11897;45.438;12.128;2022-07-29T01:38:30;1.10;;;1.00;;
23449;SDS011;11897;45.438;12.128;2022-07-29T01:40:58;3.80;;;1.10;;
23449;SDS011;11897;45.438;12.128;2022-07-29T01:43:27;2.05;;;1.55;;
23449;SDS011;11897;45.438;12.128;2022-07-29T01:46:00;1.63;;;1.30;;
23449;SDS011;11897;45.438;12.128;2022-07-29T01:48:30;1.40;;;1.00;;
23449;SDS011;11897;45.438;12.128;2022-07-29T01:51:00;2.20;;;1.20;;
23449;SDS011;11897;45.438;12.128;2022-07-29T01:53:30;1.70;;;1.23;;
23449;SDS011;11897;45.438;12.128;2022-07-29T01:55:58;1.40;;;1.30;;
23449;SDS011;11897;45.438;12.128;2022-07-29T01:58:26;1.35;;;1.25;;
23449;SDS011;11897;45.438;12.128;2022-07-29T02:00:53;3.42;;;1.40;;
23449;SDS011;11897;45.438;12.128;2022-07-29T02:03:21;1.25;;;0.95;;
23449;SDS011;11897;45.438;12.128;2022-07-29T02:05:50;1.42;;;1.05;;
23449;SDS011;11897;45.438;12.128;2022-07-29T02:08:19;1.42;;;1.17;;
23449;SDS011;11897;45.438;12.128;2022-07-29T02:10:46;2.42;;;1.40;;
23449;SDS011;11897;45.438;12.128;2022-07-29T02:13:13;1.83;;;1.42;;
23449;SDS011;11897;45.438;12.128;2022-07-29T02:15:42;6.05;;;1.35;;
23449;SDS011;11897;45.438;12.128;2022-07-29T02:18:11;1.42;;;1.33;;
23449;SDS011;11897;45.438;12.128;2022-07-29T02:20:40;1.02;;;0.90;;
23449;SDS011;11897;45.438;12.128;2022-07-29T02:23:09;7.57;;;1.42;;
23449;SDS011;11897;45.438;12.128;2022-07-29T02:25:36;1.33;;;1.23;;
23449;SDS011;11897;45.438;12.128;2022-07-29T02:28:03;3.67;;;1.42;;
23449;SDS011;11897;45.438;12.128;2022-07-29T02:30:31;2.47;;;1.23;;
23449;SDS011;11897;45.438;12.128;2022-07-29T02:32:59;1.40;;;1.08;;
23449;SDS011;11897;45.438;12.128;2022-07-29T02:35:27;1.63;;;1.30;;
23449;SDS011;11897;45.438;12.128;2022-07-29T02:37:57;1.50;;;1.00;;
23449;SDS011;11897;45.438;12.128;2022-07-29T02:40:42;3.92;;;1.50;;
23449;SDS011;11897;45.438;12.128;2022-07-29T02:43:09;3.05;;;1.58;;
23449;SDS011;11897;45.438;12.128;2022-07-29T02:45:39;1.50;;;1.27;;
23449;SDS011;11897;45.438;12.128;2022-07-29T02:48:07;1.38;;;1.27;;
23449;SDS011;11897;45.438;12.128;2022-07-29T02:50:37;1.50;;;1.23;;
23449;SDS011;11897;45.438;12.128;2022-07-29T02:53:07;1.60;;;1.05;;
23449;SDS011;11897;45.438;12.128;2022-07-29T02:55:37;1.27;;;1.08;;
23449;SDS011;11897;45.438;12.128;2022-07-29T02:58:09;2.42;;;1.38;;
23449;SDS011;11897;45.438;12.128;2022-07-29T03:00:39;0.88;;;0.80;;
23449;SDS011;11897;45.438;12.128;2022-07-29T03:03:08;2.08;;;1.20;;
23449;SDS011;11897;45.438;12.128;2022-07-29T03:05:36;1.50;;;1.40;;
23449;SDS011;11897;45.438;12.128;2022-07-29T03:08:05;1.90;;;1.30;;
23449;SDS011;11897;45.438;12.128;2022-07-29T03:10:33;1.45;;;1.15;;
23449;SDS011;11897;45.438;12.128;2022-07-29T03:13:00;1.75;;;1.40;;
23449;SDS011;11897;45.438;12.128;2022-07-29T03:15:31;2.17;;;1.30;;
23449;SDS011;11897;45.438;12.128;2022-07-29T03:17:59;2.72;;;1.23;;
23449;SDS011;11897;45.438;12.128;2022-07-29T03:20:28;0.90;;;0.90;;
23449;SDS011;11897;45.438;12.128;2022-07-29T03:22:54;1.10;;;1.00;;
23449;SDS011;11897;45.438;12.128;2022-07-29T03:25:23;1.88;;;0.90;;
23449;SDS011;11897;45.438;12.128;2022-07-29T03:27:52;3.13;;;1.38;;
23449;SDS011;11897;45.438;12.128;2022-07-29T03:30:19;0.73;;;0.70;;
23449;SDS011;11897;45.438;12.128;2022-07-29T03:32:46;1.17;;;1.00;;
23449;SDS011;11897;45.438;12.128;2022-07-29T03:35:14;2.25;;;1.20;;
23449;SDS011;11897;45.438;12.128;2022-07-29T03:37:41;1.02;;;0.90;;
23449;SDS011;11897;45.438;12.128;2022-07-29T03:40:08;1.05;;;0.73;;
23449;SDS011;11897;45.438;12.128;2022-07-29T03:42:37;0.98;;;0.82;;
23449;SDS011;11897;45.438;12.128;2022-07-29T03:45:07;2.97;;;1.20;;
23449;SDS011;11897;45.438;12.128;2022-07-29T03:47:35;2.67;;;1.08;;
23449;SDS011;11897;45.438;12.128;2022-07-29T03:50:06;1.27;;;1.15;;
23449;SDS011;11897;45.438;12.128;2022-07-29T03:52:35;1.85;;;1.52;;
23449;SDS011;11897;45.438;12.128;2022-07-29T03:55:02;1.70;;;1.20;;
23449;SDS011;11897;45.438;12.128;2022-07-29T03:57:30;1.75;;;1.08;;
23449;SDS011;11897;45.438;12.128;2022-07-29T03:59:58;1.13;;;1.02;;
23449;SDS011;11897;45.438;12.128;2022-07-29T04:02:29;1.13;;;0.88;;
23449;SDS011;11897;45.438;12.128;2022-07-29T04:04:56;1.25;;;0.90;;
23449;SDS011;11897;45.438;12.128;2022-07-29T04:07:23;2.13;;;1.35;;
23449;SDS011;11897;45.438;12.128;2022-07-29T04:09:50;1.27;;;0.82;;
23449;SDS011;11897;45.438;12.128;2022-07-29T04:12:16;1.67;;;1.20;;
23449;SDS011;11897;45.438;12.128;2022-07-29T04:14:43;1.75;;;1.30;;
23449;SDS011;11897;45.438;12.128;2022-07-29T04:17:11;1.65;;;1.40;;
23449;SDS011;11897;45.438;12.128;2022-07-29T04:19:38;1.55;;;1.45;;
23449;SDS011;11897;45.438;12.128;2022-07-29T04:22:04;1.85;;;1.20;;
23449;SDS011;11897;45.438;12.128;2022-07-29T04:24:31;1.95;;;1.35;;
23449;SDS011;11897;45.438;12.128;2022-07-29T04:26:58;2.30;;;1.52;;
23449;SDS011;11897;45.438;12.128;2022-07-29T04:29:25;1.70;;;1.50;;
23449;SDS011;11897;45.438;12.128;2022-07-29T04:31:52;4.22;;;1.40;;
23449;SDS011;11897;45.438;12.128;2022-07-29T04:34:20;1.50;;;1.40;;
23449;SDS011;11897;45.438;12.128;2022-07-29T04:36:49;1.88;;;1.48;;
23449;SDS011;11897;45.438;12.128;2022-07-29T04:39:17;2.63;;;1.27;;
23449;SDS011;11897;45.438;12.128;2022-07-29T04:41:45;1.80;;;1.20;;
23449;SDS011;11897;45.438;12.128;2022-07-29T04:44:14;4.30;;;1.70;;
23449;SDS011;11897;45.438;12.128;2022-07-29T04:46:42;2.15;;;1.20;;
23449;SDS011;11897;45.438;12.128;2022-07-29T04:49:09;1.42;;;1.33;;
23449;SDS011;11897;45.438;12.128;2022-07-29T04:51:38;2.88;;;1.38;;
23449;SDS011;11897;45.438;12.128;2022-07-29T04:54:07;3.10;;;1.35;;
23449;SDS011;11897;45.438;12.128;2022-07-29T04:56:35;2.67;;;1.45;;
23449;SDS011;11897;45.438;12.128;2022-07-29T04:59:02;8.65;;;2.05;;
23449;SDS011;11897;45.438;12.128;2022-07-29T05:01:31;1.98;;;1.38;;
23449;SDS011;11897;45.438;12.128;2022-07-29T05:03:58;2.83;;;1.50;;
23449;SDS011;11897;45.438;12.128;2022-07-29T05:06:24;2.53;;;1.38;;
23449;SDS011;11897;45.438;12.128;2022-07-29T05:08:52;3.95;;;1.80;;
23449;SDS011;11897;45.438;12.128;2022-07-29T05:11:19;2.92;;;1.45;;
23449;SDS011;11897;45.438;12.128;2022-07-29T05:13:46;1.35;;;1.10;;
23449;SDS011;11897;45.438;12.128;2022-07-29T05:16:14;3.92;;;1.50;;
23449;SDS011;11897;45.438;12.128;2022-07-29T05:18:40;3.00;;;1.60;;
23449;SDS011;11897;45.438;12.128;2022-07-29T05:21:07;4.38;;;1.38;;
23449;SDS011;11897;45.438;12.128;2022-07-29T05:23:34;1.52;;;1.40;;
23449;SDS011;11897;45.438;12.128;2022-07-29T05:26:04;2.10;;;1.50;;
23449;SDS011;11897;45.438;12.128;2022-07-29T05:28:32;4.00;;;1.55;;
23449;SDS011;11897;45.438;12.128;2022-07-29T05:31:01;1.60;;;1.45;;
23449;SDS011;11897;45.438;12.128;2022-07-29T05:33:29;1.67;;;1.50;;
23449;SDS011;11897;45.438;12.128;2022-07-29T05:35:57;1.73;;;1.42;;
23449;SDS011;11897;45.438;12.128;2022-07-29T05:38:26;4.13;;;1.50;;
23449;SDS011;11897;45.438;12.128;2022-07-29T05:40:55;3.13;;;1.83;;
23449;SDS011;11897;45.438;12.128;2022-07-29T05:43:24;1.77;;;1.23;;
23449;SDS011;11897;45.438;12.128;2022-07-29T05:45:55;1.63;;;1.52;;
23449;SDS011;11897;45.438;12.128;2022-07-29T05:48:22;2.22;;;1.63;;
23449;SDS011;11897;45.438;12.128;2022-07-29T05:50:48;2.45;;;1.70;;
23449;SDS011;11897;45.438;12.128;2022-07-29T05:53:15;2.22;;;1.50;;
23449;SDS011;11897;45.438;12.128;2022-07-29T05:55:43;3.30;;;1.88;;
23449;SDS011;11897;45.438;12.128;2022-07-29T05:58:10;2.55;;;1.58;;
23449;SDS011;11897;45.438;12.128;2022-07-29T06:00:41;1.50;;;1.40;;
23449;SDS011;11897;45.438;12.128;2022-07-29T06:03:08;3.08;;;1.75;;
23449;SDS011;11897;45.438;12.128;2022-07-29T06:05:35;2.70;;;1.55;;
23449;SDS011;11897;45.438;12.128;2022-07-29T06:08:05;3.80;;;1.60;;
23449;SDS011;11897;45.438;12.128;2022-07-29T06:10:32;2.00;;;1.80;;
23449;SDS011;11897;45.438;12.128;2022-07-29T06:12:59;2.08;;;1.60;;
23449;SDS011;11897;45.438;12.128;2022-07-29T06:15:25;2.03;;;1.63;;
23449;SDS011;11897;45.438;12.128;2022-07-29T06:17:54;2.47;;;1.60;;
23449;SDS011;11897;45.438;12.128;2022-07-29T06:20:21;2.42;;;1.83;;
23449;SDS011;11897;45.438;12.128;2022-07-29T06:22:49;1.58;;;1.48;;
23449;SDS011;11897;45.438;12.128;2022-07-29T06:25:17;2.30;;;1.50;;
23449;SDS011;11897;45.438;12.128;2022-07-29T06:27:47;1.88;;;1.48;;
23449;SDS011;11897;45.438;12.128;2022-07-29T06:30:14;3.13;;;1.52;;
23449;SDS011;11897;45.438;12.128;2022-07-29T06:32:42;2.50;;;1.80;;
23449;SDS011;11897;45.438;12.128;2022-07-29T06:35:10;1.83;;;1.60;;
23449;SDS011;11897;45.438;12.128;2022-07-29T06:37:37;4.43;;;1.73;;
23449;SDS011;11897;45.438;12.128;2022-07-29T06:40:04;1.90;;;1.50;;
23449;SDS011;11897;45.438;12.128;2022-07-29T06:42:57;1.58;;;1.30;;
23449;SDS011;11897;45.438;12.128;2022-07-29T06:45:23;1.90;;;1.70;;
23449;SDS011;11897;45.438;12.128;2022-07-29T06:47:52;2.35;;;1.50;;
23449;SDS011;11897;45.438;12.128;2022-07-29T06:50:21;2.63;;;1.40;;
23449;SDS011;11897;45.438;12.128;2022-07-29T06:52:48;2.75;;;1.58;;
23449;SDS011;11897;45.438;12.128;2022-07-29T06:55:15;2.65;;;1.70;;
23449;SDS011;11897;45.438;12.128;2022-07-29T06:57:44;1.67;;;1.55;;
23449;SDS011;11897;45.438;12.128;2022-07-29T07:00:12;3.13;;;1.63;;
23449;SDS011;11897;45.438;12.128;2022-07-29T07:02:43;1.65;;;1.25;;
23449;SDS011;11897;45.438;12.128;2022-07-29T07:05:11;1.92;;;1.42;;
23449;SDS011;11897;45.438;12.128;2022-07-29T07:07:40;2.70;;;1.90;;
23449;SDS011;11897;45.438;12.128;2022-07-29T07:10:07;2.25;;;1.58;;
23449;SDS011;11897;45.438;12.128;2022-07-29T07:12:34;4.03;;;1.98;;
23449;SDS011;11897;45.438;12.128;2022-07-29T07:15:01;2.17;;;1.65;;
23449;SDS011;11897;45.438;12.128;2022-07-29T07:17:29;3.85;;;1.92;;
23449;SDS011;11897;45.438;12.128;2022-07-29T07:19:55;1.58;;;1.48;;
23449;SDS011;11897;45.438;12.128;2022-07-29T07:22:22;1.52;;;1.30;;
23449;SDS011;11897;45.438;12.128;2022-07-29T07:24:50;1.60;;;1.40;;
23449;SDS011;11897;45.438;12.128;2022-07-29T07:27:16;1.75;;;1.63;;
23449;SDS011;11897;45.438;12.128;2022-07-29T07:29:43;1.95;;;1.60;;
23449;SDS011;11897;45.438;12.128;2022-07-29T07:32:09;1.80;;;1.30;;
23449;SDS011;11897;45.438;12.128;2022-07-29T07:34:38;2.75;;;2.10;;
23449;SDS011;11897;45.438;12.128;2022-07-29T07:37:05;3.22;;;1.77;;
23449;SDS011;11897;45.438;12.128;2022-07-29T07:39:31;3.22;;;1.83;;
23449;SDS011;11897;45.438;12.128;2022-07-29T07:41:59;1.88;;;1.70;;
23449;SDS011;11897;45.438;12.128;2022-07-29T07:44:29;3.45;;;1.83;;
23449;SDS011;11897;45.438;12.128;2022-07-29T07:46:56;1.67;;;1.58;;
23449;SDS011;11897;45.438;12.128;2022-07-29T07:49:22;6.75;;;1.73;;
23449;SDS011;11897;45.438;12.128;2022-07-29T07:51:55;1.45;;;1.20;;
23449;SDS011;11897;45.438;12.128;2022-07-29T07:54:25;2.58;;;1.63;;
23449;SDS011;11897;45.438;12.128;2022-07-29T07:56:53;2.38;;;1.75;;
23449;SDS011;11897;45.438;12.128;2022-07-29T07:59:21;1.95;;;1.70;;
23449;SDS011;11897;45.438;12.128;2022-07-29T08:01:47;1.63;;;1.30;;
23449;SDS011;11897;45.438;12.128;2022-07-29T08:04:14;2.00;;;1.65;;
23449;SDS011;11897;45.438;12.128;2022-07-29T08:06:41;1.90;;;1.67;;
23449;SDS011;11897;45.438;12.128;2022-07-29T08:09:07;2.47;;;1.70;;
23449;SDS011;11897;45.438;12.128;2022-07-29T08:11:34;5.93;;;1.75;;
23449;SDS011;11897;45.438;12.128;2022-07-29T08:14:01;2.17;;;1.67;;
23449;SDS011;11897;45.438;12.128;2022-07-29T08:16:29;1.90;;;1.58;;
23449;SDS011;11897;45.438;12.128;2022-07-29T08:18:56;5.45;;;1.55;;
23449;SDS011;11897;45.438;12.128;2022-07-29T08:21:23;1.80;;;1.38;;
23449;SDS011;11897;45.438;12.128;2022-07-29T08:23:51;1.83;;;1.55;;
23449;SDS011;11897;45.438;12.128;2022-07-29T08:26:39;1.95;;;1.75;;
23449;SDS011;11897;45.438;12.128;2022-07-29T08:29:11;1.50;;;1.40;;
23449;SDS011;11897;45.438;12.128;2022-07-29T08:31:40;2.10;;;1.90;;
23449;SDS011;11897;45.438;12.128;2022-07-29T08:34:07;3.00;;;1.90;;
23449;SDS011;11897;45.438;12.128;2022-07-29T08:36:35;3.35;;;1.63;;
23449;SDS011;11897;45.438;12.128;2022-07-29T08:39:02;3.65;;;1.90;;
23449;SDS011;11897;45.438;12.128;2022-07-29T08:41:29;2.03;;;1.77;;
23449;SDS011;11897;45.438;12.128;2022-07-29T08:43:56;1.95;;;1.70;;
23449;SDS011;11897;45.438;12.128;2022-07-29T08:46:23;1.58;;;1.48;;
23449;SDS011;11897;45.438;12.128;2022-07-29T08:48:51;2.38;;;1.92;;
23449;SDS011;11897;45.438;12.128;2022-07-29T08:51:18;4.53;;;1.60;;
23449;SDS011;11897;45.438;12.128;2022-07-29T08:53:46;1.77;;;1.63;;
23449;SDS011;11897;45.438;12.128;2022-07-29T08:56:13;3.28;;;1.92;;
23449;SDS011;11897;45.438;12.128;2022-07-29T08:58:42;1.60;;;1.50;;
23449;SDS011;11897;45.438;12.128;2022-07-29T09:01:09;3.85;;;1.65;;
23449;SDS011;11897;45.438;12.128;2022-07-29T09:03:37;2.35;;;2.03;;
23449;SDS011;11897;45.438;12.128;2022-07-29T09:06:05;4.40;;;1.98;;
23449;SDS011;11897;45.438;12.128;2022-07-29T09:08:32;2.28;;;1.77;;
23449;SDS011;11897;45.438;12.128;2022-07-29T09:11:00;2.70;;;1.52;;
23449;SDS011;11897;45.438;12.128;2022-07-29T09:13:28;2.10;;;1.55;;
23449;SDS011;11897;45.438;12.128;2022-07-29T09:15:55;2.85;;;1.85;;
23449;SDS011;11897;45.438;12.128;2022-07-29T09:18:33;1.85;;;1.58;;
23449;SDS011;11897;45.438;12.128;2022-07-29T09:21:01;2.20;;;1.95;;
23449;SDS011;11897;45.438;12.128;2022-07-29T09:24:00;3.00;;;1.98;;
23449;SDS011;11897;45.438;12.128;2022-07-29T09:26:28;3.13;;;1.52;;
23449;SDS011;11897;45.438;12.128;2022-07-29T09:28:54;2.55;;;1.75;;
23449;SDS011;11897;45.438;12.128;2022-07-29T09:31:26;2.90;;;1.40;;
23449;SDS011;11897;45.438;12.128;2022-07-29T09:33:58;2.75;;;1.60;;
23449;SDS011;11897;45.438;12.128;2022-07-29T09:36:27;2.75;;;1.90;;
23449;SDS011;11897;45.438;12.128;2022-07-29T09:38:56;3.47;;;2.10;;
23449;SDS011;11897;45.438;12.128;2022-07-29T09:41:25;2.67;;;1.33;;
23449;SDS011;11897;45.438;12.128;2022-07-29T09:43:55;6.60;;;1.60;;
23449;SDS011;11897;45.438;12.128;2022-07-29T09:46:22;6.78;;;1.58;;
23449;SDS011;11897;45.438;12.128;2022-07-29T09:49:05;1.75;;;1.40;;
23449;SDS011;11897;45.438;12.128;2022-07-29T09:51:32;2.65;;;1.63;;
23449;SDS011;11897;45.438;12.128;2022-07-29T09:53:59;2.13;;;1.70;;
23449;SDS011;11897;45.438;12.128;2022-07-29T09:56:40;2.05;;;1.50;;
23449;SDS011;11897;45.438;12.128;2022-07-29T09:59:07;3.00;;;1.58;;
23449;SDS011;11897;45.438;12.128;2022-07-29T10:01:36;2.83;;;1.65;;
23449;SDS011;11897;45.438;12.128;2022-07-29T10:04:03;1.60;;;1.50;;
23449;SDS011;11897;45.438;12.128;2022-07-29T10:06:30;2.33;;;1.90;;
23449;SDS011;11897;45.438;12.128;2022-07-29T10:09:06;1.73;;;1.52;;
23449;SDS011;11897;45.438;12.128;2022-07-29T10:11:33;2.80;;;1.83;;
23449;SDS011;11897;45.438;12.128;2022-07-29T10:14:02;2.25;;;1.55;;
23449;SDS011;11897;45.438;12.128;2022-07-29T10:16:29;2.03;;;1.83;;
23449;SDS011;11897;45.438;12.128;2022-07-29T10:18:59;1.90;;;1.70;;
23449;SDS011;11897;45.438;12.128;2022-07-29T10:21:26;1.92;;;1.75;;
23449;SDS011;11897;45.438;12.128;2022-07-29T10:23:53;1.73;;;1.60;;
23449;SDS011;11897;45.438;12.128;2022-07-29T10:26:20;3.33;;;1.60;;
23449;SDS011;11897;45.438;12.128;2022-07-29T10:28:47;2.50;;;1.83;;
23449;SDS011;11897;45.438;12.128;2022-07-29T10:31:19;1.48;;;1.33;;
23449;SDS011;11897;45.438;12.128;2022-07-29T10:33:51;3.80;;;1.67;;
23449;SDS011;11897;45.438;12.128;2022-07-29T10:36:24;1.45;;;1.35;;
23449;SDS011;11897;45.438;12.128;2022-07-29T10:38:55;2.10;;;1.83;;
23449;SDS011;11897;45.438;12.128;2022-07-29T10:44:13;2.95;;;1.67;;
23449;SDS011;11897;45.438;12.128;2022-07-29T10:46:43;2.15;;;1.90;;
23449;SDS011;11897;45.438;12.128;2022-07-29T10:49:11;3.83;;;1.50;;
23449;SDS011;11897;45.438;12.128;2022-07-29T10:52:00;1.50;;;1.38;;
23449;SDS011;11897;45.438;12.128;2022-07-29T10:54:37;2.40;;;1.67;;
23449;SDS011;11897;45.438;12.128;2022-07-29T10:57:10;2.15;;;1.70;;
23449;SDS011;11897;45.438;12.128;2022-07-29T10:59:37;2.22;;;2.05;;
23449;SDS011;11897;45.438;12.128;2022-07-29T11:02:10;2.15;;;1.95;;
23449;SDS011;11897;45.438;12.128;2022-07-29T11:05:00;2.28;;;2.00;;
23449;SDS011;11897;45.438;12.128;2022-07-29T11:07:28;3.03;;;2.55;;
23449;SDS011;11897;45.438;12.128;2022-07-29T11:12:46;2.80;;;2.13;;
23449;SDS011;11897;45.438;12.128;2022-07-29T11:15:13;3.05;;;2.33;;
23449;SDS011;11897;45.438;12.128;2022-07-29T11:18:04;2.60;;;2.03;;
23449;SDS011;11897;45.438;12.128;2022-07-29T11:20:31;2.47;;;1.70;;
23449;SDS011;11897;45.438;12.128;2022-07-29T11:22:59;2.75;;;2.25;;
23449;SDS011;11897;45.438;12.128;2022-07-29T11:25:27;2.58;;;2.38;;
23449;SDS011;11897;45.438;12.128;2022-07-29T11:28:10;5.18;;;3.03;;
23449;SDS011;11897;45.438;12.128;2022-07-29T11:30:47;2.28;;;2.08;;
23449;SDS011;11897;45.438;12.128;2022-07-29T11:33:27;2.97;;;2.13;;
23449;SDS011;11897;45.438;12.128;2022-07-29T11:36:06;2.45;;;2.25;;
23449;SDS011;11897;45.438;12.128;2022-07-29T11:38:35;5.32;;;2.42;;
23449;SDS011;11897;45.438;12.128;2022-07-29T11:41:21;5.15;;;2.17;;
23449;SDS011;11897;45.438;12.128;2022-07-29T11:43:49;2.65;;;2.42;;
23449;SDS011;11897;45.438;12.128;2022-07-29T11:46:18;2.75;;;2.38;;
23449;SDS011;11897;45.438;12.128;2022-07-29T11:48:46;2.15;;;1.95;;
23449;SDS011;11897;45.438;12.128;2022-07-29T11:51:13;3.35;;;2.20;;
23449;SDS011;11897;45.438;12.128;2022-07-29T11:53:46;2.40;;;2.15;;
23449;SDS011;11897;45.438;12.128;2022-07-29T11:56:13;3.53;;;2.00;;
23449;SDS011;11897;45.438;12.128;2022-07-29T11:58:41;2.20;;;2.00;;
23449;SDS011;11897;45.438;12.128;2022-07-29T12:01:08;2.38;;;2.17;;
23449;SDS011;11897;45.438;12.128;2022-07-29T12:03:39;2.83;;;2.33;;
23449;SDS011;11897;45.438;12.128;2022-07-29T12:06:12;2.10;;;1.90;;
23449;SDS011;11897;45.438;12.128;2022-07-29T12:08:40;2.35;;;1.92;;
23449;SDS011;11897;45.438;12.128;2022-07-29T12:11:14;5.88;;;1.75;;
23449;SDS011;11897;45.438;12.128;2022-07-29T12:13:43;3.03;;;2.05;;
23449;SDS011;11897;45.438;12.128;2022-07-29T12:16:10;3.80;;;1.80;;
23449;SDS011;11897;45.438;12.128;2022-07-29T12:18:36;2.50;;;2.03;;
23449;SDS011;11897;45.438;12.128;2022-07-29T12:21:03;4.35;;;1.92;;
23449;SDS011;11897;45.438;12.128;2022-07-29T12:23:31;2.58;;;2.05;;
23449;SDS011;11897;45.438;12.128;2022-07-29T12:25:58;2.53;;;1.98;;
23449;SDS011;11897;45.438;12.128;2022-07-29T12:28:25;2.97;;;1.85;;
23449;SDS011;11897;45.438;12.128;2022-07-29T12:30:51;2.00;;;1.80;;
23449;SDS011;11897;45.438;12.128;2022-07-29T12:33:19;5.35;;;2.17;;
23449;SDS011;11897;45.438;12.128;2022-07-29T12:35:47;3.28;;;1.70;;
23449;SDS011;11897;45.438;12.128;2022-07-29T12:38:14;2.15;;;1.92;;
23449;SDS011;11897;45.438;12.128;2022-07-29T12:40:43;2.95;;;1.90;;
23449;SDS011;11897;45.438;12.128;2022-07-29T12:43:10;3.72;;;1.55;;
23449;SDS011;11897;45.438;12.128;2022-07-29T12:45:37;3.08;;;1.98;;
23449;SDS011;11897;45.438;12.128;2022-07-29T12:48:05;6.25;;;1.67;;
23449;SDS011;11897;45.438;12.128;2022-07-29T12:50:33;2.05;;;1.80;;
23449;SDS011;11897;45.438;12.128;2022-07-29T12:53:11;2.08;;;1.35;;
23449;SDS011;11897;45.438;12.128;2022-07-29T12:55:39;2.22;;;1.92;;
23449;SDS011;11897;45.438;12.128;2022-07-29T12:58:07;2.50;;;1.95;;
23449;SDS011;11897;45.438;12.128;2022-07-29T13:00:34;2.05;;;1.85;;
23449;SDS011;11897;45.438;12.128;2022-07-29T13:03:00;1.55;;;1.45;;
23449;SDS011;11897;45.438;12.128;2022-07-29T13:05:38;3.35;;;2.05;;
23449;SDS011;11897;45.438;12.128;2022-07-29T13:08:12;2.10;;;1.90;;
23449;SDS011;11897;45.438;12.128;2022-07-29T13:10:39;9.00;;;2.03;;
23449;SDS011;11897;45.438;12.128;2022-07-29T13:13:08;2.28;;;1.67;;
23449;SDS011;11897;45.438;12.128;2022-07-29T13:15:36;2.08;;;1.98;;
23449;SDS011;11897;45.438;12.128;2022-07-29T13:18:02;2.72;;;1.67;;
23449;SDS011;11897;45.438;12.128;2022-07-29T13:20:29;2.30;;;1.65;;
23449;SDS011;11897;45.438;12.128;2022-07-29T13:22:56;3.58;;;1.95;;
23449;SDS011;11897;45.438;12.128;2022-07-29T13:25:23;2.42;;;1.75;;
23449;SDS011;11897;45.438;12.128;2022-07-29T13:27:50;1.67;;;1.58;;
23449;SDS011;11897;45.438;12.128;2022-07-29T13:30:21;1.60;;;1.50;;
23449;SDS011;11897;45.438;12.128;2022-07-29T13:32:48;1.88;;;1.55;;
23449;SDS011;11897;45.438;12.128;2022-07-29T13:35:14;2.40;;;2.00;;
23449;SDS011;11897;45.438;12.128;2022-07-29T13:37:41;1.33;;;1.23;;
23449;SDS011;11897;45.438;12.128;2022-07-29T13:40:18;1.85;;;1.67;;
23449;SDS011;11897;45.438;12.128;2022-07-29T13:42:46;1.95;;;1.73;;
23449;SDS011;11897;45.438;12.128;2022-07-29T13:45:13;1.95;;;1.45;;
23449;SDS011;11897;45.438;12.128;2022-07-29T13:47:41;2.85;;;1.63;;
23449;SDS011;11897;45.438;12.128;2022-07-29T13:50:08;3.20;;;1.85;;
23449;SDS011;11897;45.438;12.128;2022-07-29T13:52:35;2.15;;;1.77;;
23449;SDS011;11897;45.438;12.128;2022-07-29T13:55:05;2.10;;;1.80;;
23449;SDS011;11897;45.438;12.128;2022-07-29T13:57:34;2.10;;;1.40;;
23449;SDS011;11897;45.438;12.128;2022-07-29T14:00:01;1.67;;;1.55;;
23449;SDS011;11897;45.438;12.128;2022-07-29T14:02:49;2.63;;;1.70;;
23449;SDS011;11897;45.438;12.128;2022-07-29T14:05:16;2.08;;;1.85;;
23449;SDS011;11897;45.438;12.128;2022-07-29T14:07:43;1.98;;;1.70;;
23449;SDS011;11897;45.438;12.128;2022-07-29T14:10:11;1.92;;;1.70;;
23449;SDS011;11897;45.438;12.128;2022-07-29T14:12:39;2.30;;;1.67;;
23449;SDS011;11897;45.438;12.128;2022-07-29T14:15:07;2.58;;;2.10;;
23449;SDS011;11897;45.438;12.128;2022-07-29T14:17:34;2.50;;;1.92;;
23449;SDS011;11897;45.438;12.128;2022-07-29T14:20:02;2.35;;;1.85;;
23449;SDS011;11897;45.438;12.128;2022-07-29T14:22:29;3.03;;;1.92;;
23449;SDS011;11897;45.438;12.128;2022-07-29T14:24:56;2.58;;;1.40;;
23449;SDS011;11897;45.438;12.128;2022-07-29T14:27:25;2.13;;;1.75;;
23449;SDS011;11897;45.438;12.128;2022-07-29T14:29:51;3.53;;;1.75;;
23449;SDS011;11897;45.438;12.128;2022-07-29T14:32:18;2.70;;;1.67;;
23449;SDS011;11897;45.438;12.128;2022-07-29T14:34:45;2.53;;;1.60;;
23449;SDS011;11897;45.438;12.128;2022-07-29T14:37:13;1.60;;;1.40;;
23449;SDS011;11897;45.438;12.128;2022-07-29T14:39:39;2.25;;;1.65;;
23449;SDS011;11897;45.438;12.128;2022-07-29T14:42:09;2.08;;;1.73;;
23449;SDS011;11897;45.438;12.128;2022-07-29T14:44:36;1.83;;;1.50;;
23449;SDS011;11897;45.438;12.128;2022-07-29T14:47:03;1.50;;;1.40;;
23449;SDS011;11897;45.438;12.128;2022-07-29T14:49:30;2.30;;;1.92;;